Time;durP1;ratioP1;P1;durP2;ratioP2;P2;SDS_P1;SDS_P2;PMS_P1;PMS_P2;Temp;Humidity;BMP_temperature;BMP_pressure;BME280_temperature;BME280_humidity;BME280_pressure;Samples;Min_cycle;Max_cycle;Signal;HPM_P1;HPM_P2
2022/11/07 00:02:10;;;;;;;10.50;4.35;;;;;;;9.63;100.00;100536.25;5112127;28;20413;-55
2022/11/07 00:04:40;;;;;;;10.63;3.78;;;;;;;9.66;100.00;100545.72;5112304;28;20569;-55
2022/11/07 00:07:09;;;;;;;10.40;3.75;;;;;;;9.67;100.00;100552.63;5115380;28;20482;-55
2022/11/07 00:09:37;;;;;;;11.30;4.60;;;;;;;9.68;100.00;100539.44;5113663;28;20044;-55
2022/11/07 00:12:06;;;;;;;11.85;4.05;;;;;;;9.67;100.00;100544.75;5112448;28;20519;-54
2022/11/07 00:14:34;;;;;;;8.38;3.20;;;;;;;9.66;100.00;100543.09;5114135;28;20108;-55
2022/11/07 00:17:02;;;;;;;8.02;3.63;;;;;;;9.64;100.00;100544.03;5115352;28;20118;-56
2022/11/07 00:19:31;;;;;;;9.15;3.80;;;;;;;9.60;100.00;100547.81;5114960;28;20051;-56
2022/11/07 00:22:00;;;;;;;9.70;3.97;;;;;;;9.59;100.00;100553.97;5111451;28;20074;-56
2022/11/07 00:24:29;;;;;;;8.85;4.05;;;;;;;9.53;100.00;100545.66;5112716;28;20075;-55
2022/11/07 00:26:57;;;;;;;9.10;3.70;;;;;;;9.52;100.00;100557.97;5113009;28;20055;-56
2022/11/07 00:29:25;;;;;;;7.50;3.60;;;;;;;9.57;100.00;100555.03;5111768;28;20067;-54
2022/11/07 00:31:53;;;;;;;10.82;3.70;;;;;;;9.55;100.00;100559.56;5113742;28;20122;-55
2022/11/07 00:34:21;;;;;;;9.02;3.53;;;;;;;9.60;100.00;100560.94;5111724;28;20096;-55
2022/11/07 00:36:49;;;;;;;11.25;3.47;;;;;;;9.59;100.00;100563.66;5111092;28;20051;-56
2022/11/07 00:39:18;;;;;;;8.82;3.25;;;;;;;9.58;100.00;100570.66;5113214;27;20394;-56
2022/11/07 00:41:48;;;;;;;9.63;3.13;;;;;;;9.61;100.00;100577.50;5114858;28;20391;-55
2022/11/07 00:44:16;;;;;;;8.77;3.03;;;;;;;9.62;100.00;100572.16;5113345;28;20101;-56
2022/11/07 00:46:44;;;;;;;9.32;3.53;;;;;;;9.62;100.00;100566.91;5110941;28;20130;-55
2022/11/07 00:49:12;;;;;;;9.10;3.53;;;;;;;9.62;100.00;100564.28;5110305;28;20031;-55
2022/11/07 00:51:40;;;;;;;9.52;3.47;;;;;;;9.68;100.00;100573.56;5109587;28;20059;-56
2022/11/07 00:54:09;;;;;;;10.05;3.95;;;;;;;9.68;100.00;100570.06;5113069;28;20486;-55
2022/11/07 00:56:38;;;;;;;12.20;4.15;;;;;;;9.68;100.00;100570.94;5114669;28;20043;-55
2022/11/07 00:59:07;;;;;;;11.20;3.55;;;;;;;9.70;100.00;100576.09;5111178;28;20051;-55
2022/11/07 01:01:35;;;;;;;9.20;3.08;;;;;;;9.72;100.00;100569.78;5110936;28;20524;-55
2022/11/07 01:06:49;;;;;;;9.27;2.85;;;;;;;9.69;100.00;100577.84;5109511;28;20067;-54
2022/11/07 01:09:20;;;;;;;8.65;3.30;;;;;;;9.74;100.00;100585.44;5109769;28;20035;-55
2022/11/07 01:11:50;;;;;;;7.68;3.22;;;;;;;9.74;100.00;100580.19;5111113;28;20059;-57
2022/11/07 01:14:20;;;;;;;7.55;3.15;;;;;;;9.72;100.00;100576.81;5111477;28;20050;-55
2022/11/07 01:16:49;;;;;;;8.70;3.28;;;;;;;9.71;100.00;100583.84;5113718;28;20039;-55
2022/11/07 01:19:17;;;;;;;8.38;3.30;;;;;;;9.71;100.00;100581.22;5111362;28;20547;-55
2022/11/07 01:21:46;;;;;;;10.25;3.33;;;;;;;9.74;100.00;100586.28;5110516;28;20126;-55
2022/11/07 01:24:14;;;;;;;10.13;3.30;;;;;;;9.78;100.00;100592.19;5113181;28;20039;-55
2022/11/07 01:26:46;;;;;;;10.32;3.20;;;;;;;9.82;100.00;100589.25;5110527;28;20055;-54
2022/11/07 01:29:17;;;;;;;10.82;2.97;;;;;;;9.88;100.00;100587.97;5112178;28;20122;-55
2022/11/07 01:31:46;;;;;;;10.00;2.70;;;;;;;9.82;100.00;100580.53;5111482;28;20067;-55
2022/11/07 01:34:16;;;;;;;9.90;3.00;;;;;;;9.84;100.00;100586.50;5110244;28;20553;-56
2022/11/07 01:36:45;;;;;;;9.07;2.65;;;;;;;9.84;100.00;100596.19;5110242;28;20136;-56
2022/11/07 01:39:13;;;;;;;7.90;2.88;;;;;;;9.86;100.00;100595.13;5109326;28;20051;-55
2022/11/07 01:41:41;;;;;;;8.77;2.63;;;;;;;9.86;100.00;100605.66;5112066;28;20096;-53
2022/11/07 01:44:53;;;;;;;8.45;2.72;;;;;;;9.88;100.00;100601.13;5113863;28;20050;-50
2022/11/07 01:47:23;;;;;;;8.57;2.97;;;;;;;9.87;100.00;100596.84;5113430;28;20047;-54
2022/11/07 01:49:52;;;;;;;8.48;2.88;;;;;;;9.85;100.00;100601.31;5112245;28;20444;-55
2022/11/07 01:52:24;;;;;;;7.45;2.90;;;;;;;9.87;100.00;100596.84;5113604;28;20127;-55
2022/11/07 01:55:00;;;;;;;8.23;2.92;;;;;;;9.85;100.00;100605.75;5110032;28;20044;-55
2022/11/07 01:57:33;;;;;;;9.00;2.78;;;;;;;9.87;100.00;100604.72;5109952;28;20096;-54
2022/11/07 02:00:06;;;;;;;10.45;2.67;;;;;;;9.85;100.00;100603.94;5109245;28;20043;-53
2022/11/07 02:02:35;;;;;;;10.65;2.80;;;;;;;9.83;100.00;100600.59;5110978;28;20491;-53
2022/11/07 02:05:06;;;;;;;9.85;2.70;;;;;;;9.81;100.00;100612.97;5110266;28;20460;-54
2022/11/07 02:07:35;;;;;;;8.38;2.92;;;;;;;9.80;100.00;100614.78;5109456;28;20078;-52
2022/11/07 02:10:04;;;;;;;6.95;2.63;;;;;;;9.79;100.00;100609.63;5108893;28;20494;-55
2022/11/07 02:12:33;;;;;;;8.95;3.22;;;;;;;9.76;100.00;100609.81;5110756;28;20105;-54
2022/11/07 02:15:02;;;;;;;8.18;2.97;;;;;;;9.76;100.00;100601.94;5112757;28;20134;-54
2022/11/07 02:17:31;;;;;;;8.35;3.10;;;;;;;9.74;100.00;100614.34;5109885;28;20055;-54
2022/11/07 02:19:59;;;;;;;11.00;3.22;;;;;;;9.71;100.00;100617.16;5108821;28;20047;-54
2022/11/07 02:22:36;;;;;;;9.75;2.92;;;;;;;9.70;100.00;100620.72;5112229;28;20104;-54
2022/11/07 02:25:09;;;;;;;12.75;3.28;;;;;;;9.67;100.00;100613.03;5108569;28;20039;-54
2022/11/07 02:27:38;;;;;;;11.90;3.58;;;;;;;9.65;100.00;100600.00;5111086;28;20413;-53
2022/11/07 02:30:10;;;;;;;10.07;3.30;;;;;;;9.68;100.00;100606.84;5112747;28;20047;-54
2022/11/07 02:32:38;;;;;;;10.18;3.50;;;;;;;9.66;100.00;100608.75;5112911;28;20043;-55
2022/11/07 02:35:36;;;;;;;8.13;3.15;;;;;;;9.62;100.00;100610.72;5112732;28;20067;-55
2022/11/07 02:38:06;;;;;;;10.98;3.10;;;;;;;9.61;100.00;100607.25;5112428;28;20067;-54
2022/11/07 02:40:36;;;;;;;7.88;3.00;;;;;;;9.63;100.00;100607.16;5112863;28;20531;-54
2022/11/07 02:43:06;;;;;;;10.73;3.65;;;;;;;9.62;100.00;100614.16;5111044;28;20047;-54
2022/11/07 02:45:37;;;;;;;9.65;3.25;;;;;;;9.61;100.00;100609.88;5108999;28;20625;-54
2022/11/07 02:48:06;;;;;;;12.02;3.30;;;;;;;9.66;100.00;100608.75;5109252;28;20126;-54
2022/11/07 02:50:34;;;;;;;8.45;2.97;;;;;;;9.62;100.00;100606.28;5108038;28;20078;-56
2022/11/07 02:53:02;;;;;;;8.02;3.08;;;;;;;9.63;100.00;100607.97;5109465;28;20051;-55
2022/11/07 02:55:30;;;;;;;10.35;3.28;;;;;;;9.58;100.00;100603.97;5108344;28;20106;-54
2022/11/07 02:57:59;;;;;;;10.75;3.05;;;;;;;9.60;100.00;100600.31;5111768;28;20052;-53
2022/11/07 03:00:28;;;;;;;12.93;3.65;;;;;;;9.58;100.00;100606.59;5107731;28;20047;-54
2022/11/07 03:02:56;;;;;;;9.10;3.55;;;;;;;9.59;100.00;100608.28;5108653;28;20043;-55
2022/11/07 03:05:24;;;;;;;11.40;3.50;;;;;;;9.57;100.00;100618.03;5110789;28;20043;-55
2022/11/07 03:07:52;;;;;;;8.63;2.80;;;;;;;9.58;100.00;100612.69;5110771;28;20051;-54
2022/11/07 03:10:20;;;;;;;12.73;3.20;;;;;;;9.54;100.00;100608.56;5107236;28;20123;-55
2022/11/07 03:12:48;;;;;;;9.73;2.83;;;;;;;9.55;100.00;100607.63;5110902;28;20126;-53
2022/11/07 03:15:18;;;;;;;7.93;3.10;;;;;;;9.55;100.00;100615.50;5112124;28;20459;-53
2022/11/07 03:17:46;;;;;;;11.75;3.38;;;;;;;9.53;100.00;100612.16;5114593;28;20676;-55
2022/11/07 03:20:15;;;;;;;11.10;3.20;;;;;;;9.53;100.00;100608.66;5116036;28;20075;-54
2022/11/07 03:22:43;;;;;;;9.52;3.22;;;;;;;9.53;100.00;100620.03;5116307;28;20055;-54
2022/11/07 03:25:11;;;;;;;10.45;2.92;;;;;;;9.56;100.00;100616.38;5116315;28;20054;-53
2022/11/07 03:27:46;;;;;;;9.63;3.65;;;;;;;9.59;100.00;100622.25;5114876;28;20055;-53
2022/11/07 03:30:15;;;;;;;14.30;5.28;;;;;;;9.60;100.00;100620.47;5112702;28;20044;-53
2022/11/07 03:32:44;;;;;;;13.30;6.60;;;;;;;9.59;100.00;100618.78;5112452;28;20075;-54
2022/11/07 03:35:13;;;;;;;16.40;7.18;;;;;;;9.59;100.00;100618.78;5112038;28;20055;-53
2022/11/07 03:37:41;;;;;;;11.75;6.45;;;;;;;9.59;100.00;100622.25;5113728;28;20067;-53
2022/11/07 03:40:10;;;;;;;13.82;6.00;;;;;;;9.61;100.00;100630.88;5114502;28;20377;-55
2022/11/07 03:42:39;;;;;;;15.98;5.47;;;;;;;9.62;100.00;100623.84;5112855;28;20078;-54
2022/11/07 03:45:09;;;;;;;13.50;5.38;;;;;;;9.64;100.00;100619.34;5112813;28;20051;-54
2022/11/07 03:47:38;;;;;;;14.02;3.92;;;;;;;9.66;100.00;100625.31;5115273;28;20096;-54
2022/11/07 03:50:10;;;;;;;15.27;4.40;;;;;;;9.64;100.00;100627.22;5112266;27;20071;-54
2022/11/07 03:52:38;;;;;;;14.13;4.30;;;;;;;9.64;100.00;100633.31;5112861;27;20055;-54
2022/11/07 03:55:07;;;;;;;12.18;4.10;;;;;;;9.68;100.00;100638.34;5113776;28;20447;-53
2022/11/07 03:57:35;;;;;;;11.50;4.00;;;;;;;9.72;100.00;100632.81;5113592;28;20521;-54
2022/11/07 04:00:06;;;;;;;13.07;3.63;;;;;;;9.70;100.00;100632.06;5112526;27;20071;-53
2022/11/07 04:02:34;;;;;;;12.05;3.67;;;;;;;9.71;100.00;100638.19;5115306;28;20047;-54
2022/11/07 04:05:02;;;;;;;12.82;3.83;;;;;;;9.71;100.00;100643.44;5112922;28;20060;-54
2022/11/07 04:07:31;;;;;;;11.05;3.67;;;;;;;9.71;100.00;100636.38;5112146;28;20130;-54
2022/11/07 04:09:59;;;;;;;13.45;3.75;;;;;;;9.71;100.00;100633.75;5111577;28;20173;-54
2022/11/07 04:18:01;;;;;;;13.48;2.90;;;;;;;9.71;100.00;100635.53;5114190;28;20109;-54
2022/11/07 04:20:29;;;;;;;13.45;2.78;;;;;;;9.77;100.00;100635.97;5114513;28;20498;-54
2022/11/07 04:23:01;;;;;;;13.00;3.22;;;;;;;9.74;100.00;100640.59;5111478;28;20390;-55
2022/11/07 04:28:15;;;;;;;13.23;3.22;;;;;;;9.79;100.00;100641.97;5091473;28;20510;-54
2022/11/07 04:30:43;;;;;;;12.30;3.00;;;;;;;9.79;100.00;100634.09;5114760;27;20032;-53
2022/11/07 04:33:11;;;;;;;13.15;3.10;;;;;;;9.76;100.00;100647.44;5110182;28;20052;-53
2022/11/07 04:35:39;;;;;;;12.30;2.92;;;;;;;9.70;100.00;100642.56;5110993;28;20078;-53
2022/11/07 04:38:09;;;;;;;12.02;2.85;;;;;;;9.70;100.00;100646.97;5114554;28;20460;-54
2022/11/07 04:40:37;;;;;;;12.57;3.67;;;;;;;9.72;100.00;100642.47;5114808;27;20039;-54
2022/11/07 04:43:08;;;;;;;9.38;3.15;;;;;;;9.71;100.00;100633.75;5112883;28;20612;-53
2022/11/07 04:45:36;;;;;;;13.65;3.40;;;;;;;9.70;100.00;100633.84;5111783;27;20039;-54
2022/11/07 04:48:05;;;;;;;11.60;3.17;;;;;;;9.71;100.00;100640.81;5111041;28;20083;-54
2022/11/07 04:50:33;;;;;;;13.38;3.78;;;;;;;9.68;100.00;100636.59;5113875;28;20539;-54
2022/11/07 04:53:01;;;;;;;13.70;3.35;;;;;;;9.68;100.00;100641.84;5111423;28;20052;-53
2022/11/07 04:55:30;;;;;;;10.30;2.80;;;;;;;9.69;100.00;100646.13;5110059;28;20051;-53
2022/11/07 04:57:59;;;;;;;12.05;3.40;;;;;;;9.72;100.00;100637.22;5114532;27;20047;-55
2022/11/07 05:00:27;;;;;;;13.75;3.42;;;;;;;9.72;100.00;100639.84;5114232;28;20051;-53
2022/11/07 05:02:55;;;;;;;15.35;3.08;;;;;;;9.76;100.00;100641.31;5114270;28;20508;-52
2022/11/07 05:05:23;;;;;;;12.65;3.35;;;;;;;9.79;100.00;100641.16;5113243;28;20040;-54
2022/11/07 05:07:51;;;;;;;17.63;3.97;;;;;;;9.80;100.00;100635.78;5109570;28;20056;-54
2022/11/07 05:10:22;;;;;;;16.67;3.83;;;;;;;9.82;100.00;100644.41;5112377;28;20051;-51
2022/11/07 05:12:51;;;;;;;16.40;3.63;;;;;;;9.87;100.00;100644.09;5114151;27;20123;-54
2022/11/07 05:15:20;;;;;;;10.18;3.03;;;;;;;9.88;100.00;100640.53;5113641;28;20402;-51
2022/11/07 05:17:48;;;;;;;12.77;3.03;;;;;;;9.92;100.00;100646.44;5110326;28;20118;-54
2022/11/07 05:20:29;;;;;;;14.32;3.47;;;;;;;9.92;100.00;100652.50;5110127;28;20051;-54
2022/11/07 05:23:13;;;;;;;15.93;3.63;;;;;;;9.94;100.00;100658.53;5110753;28;20050;-53
2022/11/07 05:25:44;;;;;;;13.93;3.30;;;;;;;9.97;100.00;100649.59;5109758;28;20070;-54
2022/11/07 05:28:16;;;;;;;12.18;2.95;;;;;;;10.01;100.00;100663.34;5110462;28;20079;-54
2022/11/07 05:30:46;;;;;;;15.23;3.38;;;;;;;10.05;100.00;100659.59;5111707;28;20054;-54
2022/11/07 05:33:16;;;;;;;16.02;3.70;;;;;;;10.05;100.00;100654.31;5113754;28;20062;-53
2022/11/07 05:35:45;;;;;;;12.02;2.90;;;;;;;10.06;100.00;100661.28;5110576;28;20043;-53
2022/11/07 05:38:13;;;;;;;14.40;3.10;;;;;;;10.06;100.00;100656.88;5110772;28;20085;-55
2022/11/07 05:40:42;;;;;;;16.05;3.08;;;;;;;10.13;100.00;100655.53;5112443;28;20056;-54
2022/11/07 05:43:13;;;;;;;10.68;2.58;;;;;;;10.12;100.00;100655.63;5113938;28;20048;-54
2022/11/07 05:45:43;;;;;;;15.55;3.60;;;;;;;10.13;100.00;100652.91;5113736;28;20437;-55
2022/11/07 05:48:12;;;;;;;13.23;3.70;;;;;;;10.14;100.00;100657.22;5110399;28;20505;-54
2022/11/07 05:50:41;;;;;;;13.15;2.95;;;;;;;10.15;100.00;100664.13;5110416;28;20043;-55
2022/11/07 05:53:09;;;;;;;12.57;3.28;;;;;;;10.14;100.00;100665.09;5112913;28;20076;-54
2022/11/07 05:55:37;;;;;;;17.98;2.85;;;;;;;10.12;100.00;100668.78;5111370;28;20044;-54
2022/11/07 05:58:10;;;;;;;20.70;3.72;;;;;;;10.14;100.00;100658.97;5110414;28;20134;-53
2022/11/07 06:00:41;;;;;;;11.65;3.50;;;;;;;10.12;100.00;100653.84;5110453;28;20562;-54
2022/11/07 06:03:11;;;;;;;15.00;3.25;;;;;;;10.13;100.00;100665.22;5109529;28;20098;-53
2022/11/07 06:05:40;;;;;;;9.38;2.95;;;;;;;10.12;100.00;100669.59;5109908;28;20052;-53
2022/11/07 06:08:11;;;;;;;11.23;2.95;;;;;;;10.10;100.00;100665.38;5110202;28;20048;-54
2022/11/07 06:10:40;;;;;;;13.25;2.95;;;;;;;10.09;100.00;100663.69;5108757;28;20047;-54
2022/11/07 06:13:12;;;;;;;14.80;3.65;;;;;;;10.11;100.00;100667.06;5110203;28;20818;-54
2022/11/07 06:15:42;;;;;;;13.82;2.97;;;;;;;10.13;100.00;100667.84;5109999;28;20051;-54
2022/11/07 06:18:20;;;;;;;10.23;2.75;;;;;;;10.14;100.00;100669.50;5109502;28;20054;-55
2022/11/07 06:20:48;;;;;;;18.33;3.28;;;;;;;10.18;100.00;100660.47;5109118;28;20136;-54
2022/11/07 06:23:17;;;;;;;11.50;2.80;;;;;;;10.14;100.00;100669.50;5109533;27;20082;-54
2022/11/07 06:25:46;;;;;;;12.73;2.90;;;;;;;10.11;100.00;100669.69;5109267;28;20437;-54
2022/11/07 06:28:15;;;;;;;16.13;2.90;;;;;;;10.13;100.00;100663.41;5109387;28;20076;-54
2022/11/07 06:30:44;;;;;;;15.93;2.95;;;;;;;10.12;100.00;100668.78;5109622;28;20444;-54
2022/11/07 06:33:16;;;;;;;14.48;2.70;;;;;;;10.13;100.00;100673.91;5110386;28;20052;-53
2022/11/07 06:35:46;;;;;;;13.70;2.83;;;;;;;10.14;100.00;100669.50;5112916;28;20047;-54
2022/11/07 06:38:15;;;;;;;13.68;3.30;;;;;;;10.19;100.00;100674.47;5110673;28;20055;-55
2022/11/07 06:40:43;;;;;;;12.25;3.08;;;;;;;10.20;100.00;100674.34;5108545;28;20055;-54
2022/11/07 06:43:14;;;;;;;16.38;3.33;;;;;;;10.20;100.00;100681.38;5112574;28;20077;-55
2022/11/07 06:45:43;;;;;;;16.00;3.55;;;;;;;10.23;100.00;100682.03;5110712;28;20078;-53
2022/11/07 06:48:13;;;;;;;14.93;3.33;;;;;;;10.21;100.00;100683.94;5107405;28;20130;-54
2022/11/07 06:50:41;;;;;;;18.73;3.13;;;;;;;10.22;100.00;100690.03;5111684;28;20050;-54
2022/11/07 06:53:11;;;;;;;17.95;3.75;;;;;;;10.21;100.00;100689.19;5109352;28;20034;-55
2022/11/07 06:55:40;;;;;;;15.68;3.05;;;;;;;10.25;100.00;100692.44;5108672;28;20055;-53
2022/11/07 06:58:08;;;;;;;16.70;3.28;;;;;;;10.28;100.00;100695.72;5109159;28;20375;-52
2022/11/07 07:00:37;;;;;;;12.23;3.20;;;;;;;10.27;100.00;100703.72;5109060;28;20097;-55
2022/11/07 07:03:05;;;;;;;14.10;3.05;;;;;;;10.30;100.00;100704.31;5108560;28;20114;-54
2022/11/07 07:05:35;;;;;;;13.50;3.10;;;;;;;10.27;100.00;100699.28;5108101;28;20089;-55
2022/11/07 07:08:05;;;;;;;11.75;2.78;;;;;;;10.27;100.00;100704.53;5112321;28;20043;-54
2022/11/07 07:10:37;;;;;;;13.38;3.05;;;;;;;10.34;100.00;100706.78;5107904;28;20044;-56
2022/11/07 07:13:05;;;;;;;12.65;3.22;;;;;;;10.33;100.00;100700.66;5110619;28;20047;-56
2022/11/07 07:15:33;;;;;;;14.75;3.17;;;;;;;10.30;100.00;100704.31;5112517;28;20118;-54
2022/11/07 07:18:17;;;;;;;12.48;3.00;;;;;;;10.27;100.00;100709.78;5110935;28;20071;-55
2022/11/07 07:20:47;;;;;;;14.50;3.08;;;;;;;10.32;100.00;100707.72;5108417;28;20060;-53
2022/11/07 07:23:16;;;;;;;11.77;2.78;;;;;;;10.34;100.00;100707.59;5108864;28;20379;-54
2022/11/07 07:25:45;;;;;;;17.17;3.78;;;;;;;10.38;100.00;100716.19;5108457;28;20082;-54
2022/11/07 07:28:14;;;;;;;14.27;3.05;;;;;;;10.40;100.00;100712.50;5108966;28;20063;-54
2022/11/07 07:30:42;;;;;;;16.42;3.30;;;;;;;10.46;100.00;100719.13;5109112;28;20043;-54
2022/11/07 07:33:17;;;;;;;12.27;3.22;;;;;;;10.49;100.00;100706.59;5108404;28;20416;-55
2022/11/07 07:35:47;;;;;;;15.93;3.50;;;;;;;10.49;100.00;100709.25;5108308;28;20047;-54
2022/11/07 07:38:15;;;;;;;12.23;3.17;;;;;;;10.59;100.00;100722.63;5107785;28;20051;-55
2022/11/07 07:40:43;;;;;;;13.38;2.72;;;;;;;10.62;100.00;100724.19;5108332;28;20036;-54
2022/11/07 07:43:11;;;;;;;13.60;3.60;;;;;;;10.65;100.00;100731.91;5108403;28;20072;-55
2022/11/07 07:45:40;;;;;;;16.05;3.10;;;;;;;10.70;100.00;100721.06;5108610;28;20134;-54
2022/11/07 07:48:08;;;;;;;13.93;2.85;;;;;;;10.69;100.00;100732.50;5107427;28;20051;-54
2022/11/07 07:50:36;;;;;;;14.52;3.65;;;;;;;10.74;100.00;100725.16;5108202;28;20059;-54
2022/11/07 07:53:06;;;;;;;16.73;3.28;;;;;;;10.83;100.00;100730.63;5110391;28;20976;-54
2022/11/07 07:55:40;;;;;;;16.67;3.10;;;;;;;10.83;100.00;100728.00;5108289;28;20048;-55
2022/11/07 07:58:09;;;;;;;18.50;2.70;;;;;;;10.87;100.00;100733.91;5110027;28;20040;-54
2022/11/07 08:00:37;;;;;;;17.80;3.17;;;;;;;10.93;100.00;100725.59;5113409;28;20066;-55
2022/11/07 08:03:07;;;;;;;14.85;3.08;;;;;;;10.96;100.00;100735.91;5115644;28;20161;-55
2022/11/07 08:05:36;;;;;;;16.58;3.25;;;;;;;11.02;100.00;100739.09;5115615;28;20052;-55
2022/11/07 08:08:07;;;;;;;14.90;2.67;;;;;;;11.06;100.00;100737.94;5112835;28;20043;-56
2022/11/07 08:10:35;;;;;;;13.40;2.85;;;;;;;11.12;100.00;100748.00;5110793;28;20075;-56
2022/11/07 08:13:11;;;;;;;11.05;2.47;;;;;;;11.19;100.00;100749.25;5112042;28;20040;-55
2022/11/07 08:15:41;;;;;;;17.20;3.10;;;;;;;11.24;100.00;100739.25;5111926;28;20043;-55
2022/11/07 08:18:09;;;;;;;17.65;2.67;;;;;;;11.27;100.00;100752.19;5111810;28;20113;-55
2022/11/07 08:20:38;;;;;;;12.05;3.13;;;;;;;11.28;100.00;100751.25;5111392;28;20043;-55
2022/11/07 08:23:09;;;;;;;10.85;2.63;;;;;;;11.40;100.00;100753.97;5111357;28;20051;-56
2022/11/07 08:25:48;;;;;;;13.80;2.92;;;;;;;11.50;100.00;100752.41;5114021;28;20532;-54
2022/11/07 08:28:17;;;;;;;10.45;3.33;;;;;;;11.53;100.00;100753.97;5111575;28;20089;-55
2022/11/07 08:30:45;;;;;;;11.75;2.55;;;;;;;11.61;100.00;100747.19;5114419;28;20044;-56
2022/11/07 08:33:13;;;;;;;12.65;2.95;;;;;;;11.63;100.00;100750.59;5114344;28;20050;-57
2022/11/07 08:35:41;;;;;;;9.38;2.40;;;;;;;11.76;100.00;100752.34;5111438;28;20047;-56
2022/11/07 08:38:11;;;;;;;11.63;2.63;;;;;;;11.84;100.00;100752.63;5112402;28;20062;-56
2022/11/07 08:40:39;;;;;;;10.10;2.10;;;;;;;11.99;100.00;100751.53;5110418;27;20051;-56
2022/11/07 08:43:07;;;;;;;14.65;2.90;;;;;;;12.13;100.00;100752.34;5111394;28;20100;-57
2022/11/07 08:45:35;;;;;;;12.48;2.60;;;;;;;12.18;100.00;100756.31;5110658;28;20118;-56
2022/11/07 08:48:04;;;;;;;11.23;3.13;;;;;;;12.25;100.00;100761.16;5111154;28;20123;-56
2022/11/07 08:50:32;;;;;;;12.95;2.45;;;;;;;12.25;100.00;100774.34;5111002;28;20056;-56
2022/11/07 08:53:00;;;;;;;10.45;2.25;;;;;;;12.29;100.00;100781.91;5113273;28;20538;-56
2022/11/07 08:55:31;;;;;;;14.50;2.60;;;;;;;12.35;100.00;100783.25;5114630;27;20104;-56
2022/11/07 08:58:00;;;;;;;9.88;2.00;;;;;;;12.39;100.00;100787.34;5111867;28;20043;-56
2022/11/07 09:00:28;;;;;;;14.02;2.90;;;;;;;12.36;100.00;100786.72;5111119;27;20126;-56
2022/11/07 09:02:56;;;;;;;12.48;2.72;;;;;;;12.40;100.00;100798.75;5110736;28;20047;-56
2022/11/07 09:05:44;;;;;;;14.63;2.80;;;;;;;12.37;100.00;100799.81;5110752;28;20043;-56
2022/11/07 09:08:12;;;;;;;13.48;2.40;;;;;;;12.34;100.00;100797.41;5111063;28;20098;-56
2022/11/07 09:10:42;;;;;;;11.80;2.38;;;;;;;12.33;100.00;100796.53;5109342;28;20071;-56
2022/11/07 09:13:10;;;;;;;13.35;2.55;;;;;;;12.33;100.00;100799.19;5114501;28;20058;-56
2022/11/07 09:15:38;;;;;;;10.60;2.22;;;;;;;12.35;100.00;100799.06;5114214;28;20053;-56
2022/11/07 09:18:07;;;;;;;11.75;2.60;;;;;;;12.34;100.00;100800.88;5114121;28;20067;-56
2022/11/07 09:20:35;;;;;;;11.65;2.63;;;;;;;12.38;100.00;100798.00;5114151;27;20075;-56
2022/11/07 09:23:03;;;;;;;10.98;2.80;;;;;;;12.41;100.00;100797.78;5113853;28;20478;-56
2022/11/07 09:25:32;;;;;;;15.32;3.00;;;;;;;12.43;100.00;100801.16;5114180;28;20046;-57
2022/11/07 09:28:05;;;;;;;6.97;1.88;;;;;;;12.45;100.00;100796.63;5113573;27;20043;-56
2022/11/07 09:30:33;;;;;;;13.18;2.63;;;;;;;12.46;100.00;100808.81;5113577;28;20578;-57
2022/11/07 09:33:02;;;;;;;11.80;2.45;;;;;;;12.54;100.00;100810.91;5113647;28;20078;-57
2022/11/07 09:35:30;;;;;;;7.70;1.98;;;;;;;12.61;100.00;100814.75;5113767;27;20056;-56
2022/11/07 09:37:58;;;;;;;11.65;2.15;;;;;;;12.63;100.00;100820.78;5113821;27;20085;-56
2022/11/07 09:40:39;;;;;;;7.75;2.22;;;;;;;12.66;100.00;100816.09;5113771;28;20142;-56
2022/11/07 09:43:25;;;;;;;11.10;2.33;;;;;;;12.71;100.00;100820.19;5111490;28;20035;-56
2022/11/07 09:46:01;;;;;;;15.45;2.95;;;;;;;12.77;100.00;100819.75;5110561;28;20058;-56
2022/11/07 09:48:41;;;;;;;17.48;3.05;;;;;;;12.82;100.00;100828.16;5110098;28;20108;-56
2022/11/07 09:51:14;;;;;;;13.70;2.67;;;;;;;12.79;100.00;100831.03;5110275;28;20092;-56
2022/11/07 09:53:47;;;;;;;11.75;2.38;;;;;;;12.83;100.00;100827.22;5109893;28;20048;-56
2022/11/07 09:56:15;;;;;;;12.70;2.67;;;;;;;12.85;100.00;100834.03;5109419;28;20474;-56
2022/11/07 09:58:50;;;;;;;14.38;2.88;;;;;;;12.84;100.00;100823.59;5113421;28;20494;-54
2022/11/07 10:01:20;;;;;;;11.60;2.17;;;;;;;12.88;100.00;100829.50;5111538;28;20048;-54
2022/11/07 10:03:48;;;;;;;11.18;2.35;;;;;;;12.93;100.00;100837.91;5112930;28;20516;-53
2022/11/07 10:06:44;;;;;;;11.15;2.72;;;;;;;12.98;100.00;100831.34;5112818;28;20047;-54
2022/11/07 10:09:17;;;;;;;16.80;2.58;;;;;;;13.05;100.00;100833.50;5112639;28;20059;-54
2022/11/07 10:11:53;;;;;;;11.18;2.00;;;;;;;13.01;100.00;100839.00;5112975;28;20097;-54
2022/11/07 10:14:33;;;;;;;11.32;2.70;;;;;;;13.07;100.00;100834.22;5112936;28;20103;-54
2022/11/07 10:17:11;;;;;;;11.45;2.42;;;;;;;13.04;100.00;100830.03;5113296;28;20088;-53
2022/11/07 10:19:55;;;;;;;10.60;2.45;;;;;;;13.05;100.00;100838.78;5113169;28;20055;-53
2022/11/07 10:22:33;;;;;;;10.93;2.25;;;;;;;13.01;100.00;100841.66;5111004;28;20113;-52
2022/11/07 10:25:16;;;;;;;9.57;2.10;;;;;;;13.07;100.00;100836.88;5108895;28;20035;-54
2022/11/07 10:27:47;;;;;;;16.65;2.70;;;;;;;13.08;100.00;100842.03;5112366;28;20043;-53
2022/11/07 10:30:19;;;;;;;15.23;2.47;;;;;;;13.08;100.00;100849.97;5110245;28;20120;-52
2022/11/07 10:32:53;;;;;;;10.88;2.38;;;;;;;13.12;100.00;100846.13;5110687;28;20047;-53
2022/11/07 10:35:28;;;;;;;10.18;2.65;;;;;;;13.17;100.00;100851.03;5112799;28;20068;-53
2022/11/07 10:37:58;;;;;;;11.32;2.95;;;;;;;13.21;100.00;100855.16;5112665;28;20051;-52
2022/11/07 10:40:33;;;;;;;13.45;2.90;;;;;;;13.26;100.00;100858.28;5112499;28;20049;-51
2022/11/07 10:43:05;;;;;;;9.80;2.20;;;;;;;13.29;100.00;100860.69;5109610;28;20047;-51
2022/11/07 10:45:37;;;;;;;12.70;2.65;;;;;;;13.29;100.00;100865.97;5109268;28;20126;-53
2022/11/07 10:48:06;;;;;;;14.90;2.57;;;;;;;13.33;100.00;100856.00;5109176;28;20046;-53
2022/11/07 10:50:38;;;;;;;12.85;2.65;;;;;;;13.35;100.00;100859.38;5112051;28;20043;-54
2022/11/07 10:53:10;;;;;;;12.63;2.78;;;;;;;13.37;100.00;100856.66;5112744;28;20051;-51
2022/11/07 10:55:44;;;;;;;13.70;2.83;;;;;;;13.48;100.00;100859.31;5112554;28;20055;-54
2022/11/07 10:58:18;;;;;;;12.00;2.60;;;;;;;13.37;100.00;100862.75;5110681;28;20456;-52
2022/11/07 11:00:59;;;;;;;12.68;2.40;;;;;;;13.41;100.00;100856.28;5109300;28;20058;-53
2022/11/07 11:03:31;;;;;;;13.23;2.70;;;;;;;13.46;100.00;100854.13;5112397;28;20082;-54
2022/11/07 11:06:23;;;;;;;9.25;2.60;;;;;;;13.48;100.00;100854.88;5109509;28;20047;-56
2022/11/07 11:08:52;;;;;;;10.88;2.22;;;;;;;13.51;100.00;100852.00;5109041;28;20055;-53
2022/11/07 11:11:30;;;;;;;10.73;2.50;;;;;;;13.54;100.00;100848.28;5110676;28;20101;-52
2022/11/07 11:14:03;;;;;;;10.77;2.25;;;;;;;13.59;100.00;100854.00;5109618;28;20044;-56
2022/11/07 11:16:36;;;;;;;7.35;1.85;;;;;;;13.58;100.00;100848.84;5110019;28;20510;-56
2022/11/07 11:19:06;;;;;;;9.68;2.13;;;;;;;13.52;100.00;100856.31;5112399;28;20047;-56
2022/11/07 11:21:41;;;;;;;10.77;2.13;;;;;;;13.60;100.00;100850.41;5109705;28;20388;-56
2022/11/07 11:24:13;;;;;;;;;;;;;;;13.72;100.00;100846.00;5108831;28;20050;-56
2022/11/07 11:26:43;;;;;;;11.70;2.50;;;;;;;13.70;100.00;100839.97;5110264;28;20350;-56
2022/11/07 11:29:21;;;;;;;10.98;3.10;;;;;;;13.64;100.00;100843.94;5112079;28;20079;-56
2022/11/07 11:31:54;;;;;;;12.10;2.22;;;;;;;13.69;100.00;100844.44;5112479;28;20412;-52
2022/11/07 11:34:32;;;;;;;12.38;2.50;;;;;;;13.73;100.00;100845.03;5111970;28;20047;-54
2022/11/07 11:37:06;;;;;;;11.90;2.53;;;;;;;13.73;100.00;100841.53;5113558;28;20047;-52
2022/11/07 11:39:40;;;;;;;11.35;2.10;;;;;;;13.75;100.00;100852.84;5116402;28;20089;-53
2022/11/07 11:42:19;;;;;;;12.38;2.40;;;;;;;13.71;100.00;100854.03;5116080;28;20067;-56